Time;durP1;ratioP1;P1;durP2;ratioP2;P2;SDS_P1;SDS_P2;PMS_P1;PMS_P2;Temp;Humidity;BMP_temperature;BMP_pressure;BME280_temperature;BME280_humidity;BME280_pressure;Samples;Min_cycle;Max_cycle;Signal;HPM_P1;HPM_P2
2023/07/21 00:02:23;;;;;;;25.38;9.38;;;;;;;;;;4931236;28;20103;-66
2023/07/21 00:04:49;;;;;;;26.48;9.95;;;;;;;;;;4918813;28;20038;-67
2023/07/21 00:07:15;;;;;;;27.73;9.13;;;;;;;;;;4914550;28;20027;-66
2023/07/21 00:09:42;;;;;;;23.00;8.70;;;;;;;;;;4929888;28;20158;-67
2023/07/21 00:12:08;;;;;;;26.83;9.35;;;;;;;;;;4924050;28;20137;-67
2023/07/21 00:14:34;;;;;;;24.17;8.85;;;;;;;;;;4931191;28;20425;-66
2023/07/21 00:17:04;;;;;;;26.27;9.57;;;;;;;;;;4931041;28;20059;-66
2023/07/21 00:19:31;;;;;;;28.85;9.93;;;;;;;;;;4911166;28;20138;-66
2023/07/21 00:21:57;;;;;;;21.27;9.10;;;;;;;;;;4928435;28;20030;-66
2023/07/21 00:24:24;;;;;;;24.63;9.38;;;;;;;;;;4915943;28;20122;-66
2023/07/21 00:26:53;;;;;;;25.88;9.63;;;;;;;;;;4934834;28;20027;-66
2023/07/21 00:29:19;;;;;;;28.13;9.90;;;;;;;;;;4933951;28;20038;-67
2023/07/21 00:31:49;;;;;;;31.15;10.02;;;;;;;;;;4933200;28;20027;-67
2023/07/21 00:34:15;;;;;;;26.77;10.20;;;;;;;;;;4927987;28;20058;-66
2023/07/21 00:36:41;;;;;;;26.05;9.85;;;;;;;;;;4929971;28;20035;-66
2023/07/21 00:39:08;;;;;;;23.77;9.60;;;;;;;;;;4928429;28;20091;-65
2023/07/21 00:41:34;;;;;;;22.95;9.35;;;;;;;;;;4912947;28;20223;-66
2023/07/21 00:44:01;;;;;;;23.42;9.15;;;;;;;;;;4927733;28;20054;-66
2023/07/21 00:46:27;;;;;;;25.98;9.77;;;;;;;;;;4911892;28;20073;-66
2023/07/21 00:48:53;;;;;;;31.70;10.32;;;;;;;;;;4926448;28;20206;-65
2023/07/21 00:51:20;;;;;;;29.05;10.00;;;;;;;;;;4931269;28;20395;-66
2023/07/21 00:53:47;;;;;;;25.85;9.68;;;;;;;;;;4916450;28;20393;-66
2023/07/21 00:56:13;;;;;;;22.88;9.77;;;;;;;;;;4917921;28;20073;-66
2023/07/21 00:58:39;;;;;;;24.33;10.30;;;;;;;;;;4917272;28;20039;-66
2023/07/21 01:01:06;;;;;;;30.55;10.65;;;;;;;;;;4909070;28;20291;-65
2023/07/21 01:03:35;;;;;;;22.17;9.98;;;;;;;;;;4931615;28;20142;-65
2023/07/21 01:06:03;;;;;;;24.13;10.38;;;;;;;;;;4926913;28;20019;-66
2023/07/21 01:08:29;;;;;;;30.67;10.55;;;;;;;;;;4932362;28;20134;-66
2023/07/21 01:10:56;;;;;;;24.92;10.32;;;;;;;;;;4928858;28;20043;-66
2023/07/21 01:13:22;;;;;;;27.77;10.52;;;;;;;;;;4920437;28;20031;-65
2023/07/21 01:15:53;;;;;;;26.20;10.77;;;;;;;;;;4918091;28;20031;-65
2023/07/21 01:18:20;;;;;;;26.45;9.98;;;;;;;;;;4935405;28;20378;-66
2023/07/21 01:20:47;;;;;;;25.98;10.63;;;;;;;;;;4937266;28;20035;-65
2023/07/21 01:23:13;;;;;;;18.90;9.68;;;;;;;;;;4918697;28;20122;-65
2023/07/21 01:25:42;;;;;;;26.73;10.60;;;;;;;;;;4940116;28;20118;-65
2023/07/21 01:28:11;;;;;;;24.00;10.15;;;;;;;;;;4916014;28;20031;-67
2023/07/21 01:30:37;;;;;;;27.88;9.63;;;;;;;;;;4935181;28;20465;-67
2023/07/21 01:33:04;;;;;;;27.17;10.27;;;;;;;;;;4931845;28;20132;-67
2023/07/21 01:35:32;;;;;;;25.63;9.88;;;;;;;;;;4916490;28;20126;-66
2023/07/21 01:38:00;;;;;;;27.42;10.73;;;;;;;;;;4914549;28;20032;-66
2023/07/21 01:40:26;;;;;;;23.85;10.18;;;;;;;;;;4935594;28;20501;-67
2023/07/21 01:42:53;;;;;;;32.60;10.90;;;;;;;;;;4931441;28;20262;-67
2023/07/21 01:45:19;;;;;;;24.48;9.57;;;;;;;;;;4936152;28;20030;-66
2023/07/21 01:47:46;;;;;;;30.35;10.80;;;;;;;;;;4917309;28;20403;-66
2023/07/21 01:50:13;;;;;;;27.77;11.13;;;;;;;;;;4911876;28;20429;-66
2023/07/21 01:52:40;;;;;;;27.55;10.90;;;;;;;;;;4922528;28;20147;-66
2023/07/21 01:55:35;;;;;;;25.27;10.82;;;;;;;;;;4931041;28;20039;-66
2023/07/21 01:58:06;;;;;;;26.98;10.77;;;;;;;;;;4899677;28;20050;-66
2023/07/21 02:00:34;;;;;;;29.40;10.95;;;;;;;;;;4934880;28;20114;-66
2023/07/21 02:03:01;;;;;;;22.90;9.38;;;;;;;;;;4932706;28;20035;-65
2023/07/21 02:05:28;;;;;;;31.45;11.07;;;;;;;;;;4936180;28;20662;-65
2023/07/21 02:07:54;;;;;;;27.65;11.20;;;;;;;;;;4929350;28;20050;-65
2023/07/21 02:10:20;;;;;;;26.63;10.65;;;;;;;;;;4915674;28;20122;-66
2023/07/21 02:12:47;;;;;;;26.38;10.00;;;;;;;;;;4936112;28;20067;-65
2023/07/21 02:15:14;;;;;;;29.27;10.50;;;;;;;;;;4914316;28;20066;-65
2023/07/21 02:17:40;;;;;;;28.25;10.65;;;;;;;;;;4933519;28;20395;-65
2023/07/21 02:20:10;;;;;;;26.05;10.35;;;;;;;;;;4911253;28;20043;-66
2023/07/21 02:22:37;;;;;;;22.92;9.90;;;;;;;;;;4935280;28;20066;-66
2023/07/21 02:25:04;;;;;;;23.33;10.20;;;;;;;;;;4926320;28;20130;-66
2023/07/21 02:27:31;;;;;;;24.70;9.68;;;;;;;;;;4934277;28;20397;-66
2023/07/21 02:29:57;;;;;;;28.30;9.98;;;;;;;;;;4930311;28;20441;-66
2023/07/21 02:32:23;;;;;;;23.02;9.48;;;;;;;;;;4916127;28;20049;-66
2023/07/21 02:34:50;;;;;;;24.23;9.57;;;;;;;;;;4936685;28;20118;-66
2023/07/21 02:37:17;;;;;;;27.58;9.93;;;;;;;;;;4915752;28;20043;-66
2023/07/21 02:39:43;;;;;;;29.52;10.30;;;;;;;;;;4934692;28;20042;-66
2023/07/21 02:42:09;;;;;;;28.45;10.20;;;;;;;;;;4933042;28;20027;-65
2023/07/21 02:44:35;;;;;;;24.95;10.30;;;;;;;;;;4937645;28;20136;-65
2023/07/21 02:47:01;;;;;;;30.98;10.00;;;;;;;;;;4910872;28;20155;-66
2023/07/21 02:49:29;;;;;;;29.48;10.60;;;;;;;;;;4917593;28;20037;-66
2023/07/21 02:51:55;;;;;;;29.33;10.77;;;;;;;;;;4915055;28;20382;-65
2023/07/21 02:54:21;;;;;;;28.52;10.60;;;;;;;;;;4915670;28;20035;-65
2023/07/21 02:56:47;;;;;;;24.17;10.85;;;;;;;;;;4935453;28;20038;-65
2023/07/21 02:59:14;;;;;;;27.80;11.27;;;;;;;;;;4929863;28;20031;-67
2023/07/21 03:01:40;;;;;;;24.27;9.60;;;;;;;;;;4916185;28;20123;-67
2023/07/21 03:04:07;;;;;;;22.00;9.75;;;;;;;;;;4912814;28;20031;-67
2023/07/21 03:06:34;;;;;;;24.38;10.10;;;;;;;;;;4935382;28;20035;-65
2023/07/21 03:09:00;;;;;;;29.38;10.95;;;;;;;;;;4911077;28;20174;-64
2023/07/21 03:11:26;;;;;;;27.13;11.18;;;;;;;;;;4918896;28;20119;-67
2023/07/21 03:13:52;;;;;;;28.80;11.27;;;;;;;;;;4928169;28;20039;-65
2023/07/21 03:16:18;;;;;;;30.17;10.60;;;;;;;;;;4936931;28;20031;-65
2023/07/21 03:18:44;;;;;;;26.52;10.48;;;;;;;;;;4931822;28;20039;-66
2023/07/21 03:21:11;;;;;;;30.55;11.02;;;;;;;;;;4917461;28;20121;-66
2023/07/21 03:23:37;;;;;;;28.42;11.63;;;;;;;;;;4917272;28;20022;-65
2023/07/21 03:26:03;;;;;;;27.73;10.82;;;;;;;;;;4931228;28;20042;-65
2023/07/21 03:28:29;;;;;;;29.40;10.07;;;;;;;;;;4935726;28;20035;-64
2023/07/21 03:30:59;;;;;;;26.23;10.20;;;;;;;;;;4912788;28;20254;-67
2023/07/21 03:33:25;;;;;;;27.25;10.15;;;;;;;;;;4916444;28;20482;-66
2023/07/21 03:36:00;;;;;;;28.70;10.50;;;;;;;;;;4932221;28;20030;-68
2023/07/21 03:38:27;;;;;;;25.10;10.30;;;;;;;;;;4912350;28;20039;-65
2023/07/21 03:41:06;;;;;;;24.17;10.30;;;;;;;;;;4928913;28;20278;-65
2023/07/21 03:43:33;;;;;;;26.15;9.43;;;;;;;;;;4929386;28;20118;-65
2023/07/21 03:46:00;;;;;;;24.75;9.80;;;;;;;;;;4929792;28;20046;-65
2023/07/21 03:48:26;;;;;;;27.52;10.40;;;;;;;;;;4930428;28;20027;-65
2023/07/21 03:50:57;;;;;;;26.55;10.23;;;;;;;;;;4928899;28;20102;-65
2023/07/21 03:53:24;;;;;;;28.25;10.00;;;;;;;;;;4911372;28;20493;-65
2023/07/21 03:55:50;;;;;;;27.88;9.80;;;;;;;;;;4927881;28;20127;-66
2023/07/21 03:58:16;;;;;;;26.80;9.68;;;;;;;;;;4928075;28;20035;-65
2023/07/21 04:00:43;;;;;;;27.27;10.15;;;;;;;;;;4936422;28;20035;-65
2023/07/21 04:03:09;;;;;;;26.73;10.02;;;;;;;;;;4909000;28;20038;-66
2023/07/21 04:05:36;;;;;;;21.15;9.15;;;;;;;;;;4931794;28;20036;-65
2023/07/21 04:08:05;;;;;;;27.52;10.27;;;;;;;;;;4926590;28;20038;-65
2023/07/21 04:10:36;;;;;;;30.40;10.85;;;;;;;;;;4932588;28;20500;-66
2023/07/21 04:13:02;;;;;;;22.92;9.77;;;;;;;;;;4928768;28;20115;-65
2023/07/21 04:15:28;;;;;;;25.20;10.48;;;;;;;;;;4932038;28;20057;-64
2023/07/21 04:17:54;;;;;;;26.00;10.00;;;;;;;;;;4928605;28;20075;-65
2023/07/21 04:20:23;;;;;;;28.30;10.95;;;;;;;;;;4913337;28;20039;-64
2023/07/21 04:22:50;;;;;;;23.15;9.60;;;;;;;;;;4928399;28;20548;-64
2023/07/21 04:25:17;;;;;;;24.40;9.52;;;;;;;;;;4911155;28;20048;-64
2023/07/21 04:27:47;;;;;;;25.23;8.88;;;;;;;;;;4934228;28;20091;-67
2023/07/21 04:30:13;;;;;;;24.90;9.15;;;;;;;;;;4929847;28;20416;-65
2023/07/21 04:32:40;;;;;;;21.85;8.27;;;;;;;;;;4910227;28;20439;-65
2023/07/21 04:35:09;;;;;;;21.90;8.20;;;;;;;;;;4907056;28;20871;-65
2023/07/21 04:37:36;;;;;;;21.25;9.25;;;;;;;;;;4927585;28;20074;-65
2023/07/21 04:40:04;;;;;;;23.40;9.13;;;;;;;;;;4906937;28;20059;-66
2023/07/21 04:42:30;;;;;;;22.52;8.32;;;;;;;;;;4919271;28;20027;-66
2023/07/21 04:44:57;;;;;;;22.35;8.05;;;;;;;;;;4909833;28;20031;-66
2023/07/21 04:47:23;;;;;;;23.70;8.75;;;;;;;;;;4929391;28;20023;-67
2023/07/21 04:49:50;;;;;;;21.55;8.13;;;;;;;;;;4930689;28;20086;-65
2023/07/21 04:52:17;;;;;;;23.10;9.05;;;;;;;;;;4913468;28;20034;-66
2023/07/21 04:54:44;;;;;;;25.55;9.05;;;;;;;;;;4916672;28;20552;-66
2023/07/21 04:57:10;;;;;;;24.20;9.20;;;;;;;;;;4928095;28;20035;-65
2023/07/21 04:59:37;;;;;;;23.88;8.95;;;;;;;;;;4914018;28;20039;-66
2023/07/21 05:02:03;;;;;;;28.42;9.05;;;;;;;;;;4926056;28;20035;-66
2023/07/21 05:04:29;;;;;;;23.48;8.77;;;;;;;;;;4907187;28;20035;-66
2023/07/21 05:06:55;;;;;;;29.25;9.38;;;;;;;;;;4908386;28;20016;-66
2023/07/21 05:09:22;;;;;;;21.33;8.13;;;;;;;;;;4914427;28;20157;-66
2023/07/21 05:11:48;;;;;;;19.35;8.10;;;;;;;;;;4925464;28;20113;-66
2023/07/21 05:14:14;;;;;;;26.02;8.82;;;;;;;;;;4930059;28;20526;-66
2023/07/21 05:16:41;;;;;;;26.27;9.10;;;;;;;;;;4927606;28;20505;-66
2023/07/21 05:19:08;;;;;;;27.38;10.00;;;;;;;;;;4926855;28;20044;-66
2023/07/21 05:21:36;;;;;;;23.58;9.52;;;;;;;;;;4930269;28;20389;-66
2023/07/21 05:24:02;;;;;;;29.48;9.85;;;;;;;;;;4913944;28;20034;-66
2023/07/21 05:26:29;;;;;;;21.98;9.38;;;;;;;;;;4931395;28;20197;-66
2023/07/21 05:28:55;;;;;;;26.48;9.82;;;;;;;;;;4925304;28;20482;-66
2023/07/21 05:31:22;;;;;;;19.13;9.40;;;;;;;;;;4929131;28;20070;-66
2023/07/21 05:33:48;;;;;;;20.95;8.15;;;;;;;;;;4911466;28;20035;-67
2023/07/21 05:36:15;;;;;;;21.73;8.63;;;;;;;;;;4909467;28;20023;-66
2023/07/21 05:38:41;;;;;;;21.40;8.45;;;;;;;;;;4927364;28;20143;-66
2023/07/21 05:41:07;;;;;;;20.35;7.63;;;;;;;;;;4924728;28;20032;-66
2023/07/21 05:43:34;;;;;;;19.63;8.38;;;;;;;;;;4927709;28;20018;-67
2023/07/21 05:46:03;;;;;;;25.48;9.60;;;;;;;;;;4923189;28;20027;-66
2023/07/21 05:48:29;;;;;;;22.77;8.73;;;;;;;;;;4926197;28;20023;-67
2023/07/21 05:50:55;;;;;;;21.67;8.68;;;;;;;;;;4928275;28;20879;-66
2023/07/21 05:53:21;;;;;;;22.65;8.27;;;;;;;;;;4910760;28;20035;-66
2023/07/21 05:55:48;;;;;;;25.02;9.15;;;;;;;;;;4933293;28;20469;-65
2023/07/21 05:58:14;;;;;;;18.90;7.40;;;;;;;;;;4911002;28;20335;-66
2023/07/21 06:00:40;;;;;;;22.25;8.90;;;;;;;;;;4920988;28;20091;-66
2023/07/21 06:03:06;;;;;;;23.48;8.00;;;;;;;;;;4933308;28;20037;-65
2023/07/21 06:05:36;;;;;;;22.42;7.80;;;;;;;;;;4932566;28;20113;-65
2023/07/21 06:08:02;;;;;;;17.65;7.93;;;;;;;;;;4914646;28;20118;-66
2023/07/21 06:10:29;;;;;;;21.55;8.45;;;;;;;;;;4935516;28;20039;-65
2023/07/21 06:12:55;;;;;;;23.65;8.40;;;;;;;;;;4929872;28;20521;-65
2023/07/21 06:15:24;;;;;;;19.30;7.60;;;;;;;;;;4917786;28;20420;-65
2023/07/21 06:17:50;;;;;;;21.33;8.65;;;;;;;;;;4936894;28;20031;-66
2023/07/21 06:20:16;;;;;;;22.65;8.30;;;;;;;;;;4927212;28;20035;-65
2023/07/21 06:22:42;;;;;;;20.60;8.00;;;;;;;;;;4919444;28;20027;-67
2023/07/21 06:25:08;;;;;;;21.67;8.52;;;;;;;;;;4928341;28;20046;-66
2023/07/21 06:27:35;;;;;;;18.23;7.97;;;;;;;;;;4935487;28;20027;-66
2023/07/21 06:30:01;;;;;;;24.33;8.07;;;;;;;;;;4915829;28;20042;-66
2023/07/21 06:32:27;;;;;;;24.77;7.45;;;;;;;;;;4932199;28;20528;-66
2023/07/21 06:34:53;;;;;;;22.58;7.97;;;;;;;;;;4913572;28;20810;-66
2023/07/21 06:37:19;;;;;;;16.85;6.90;;;;;;;;;;4937596;28;20322;-66
2023/07/21 06:39:48;;;;;;;27.50;8.07;;;;;;;;;;4933848;28;20035;-67
2023/07/21 06:42:15;;;;;;;31.15;7.43;;;;;;;;;;4917562;28;20024;-66
2023/07/21 06:44:42;;;;;;;18.48;6.90;;;;;;;;;;4915301;29;20047;-66
2023/07/21 06:47:08;;;;;;;24.05;7.72;;;;;;;;;;4931280;28;20027;-66
2023/07/21 06:49:34;;;;;;;25.70;7.82;;;;;;;;;;4934430;28;20050;-66
2023/07/21 06:52:00;;;;;;;18.27;6.72;;;;;;;;;;4917352;28;20130;-67
2023/07/21 06:54:29;;;;;;;24.35;8.48;;;;;;;;;;4936003;28;20582;-66
2023/07/21 06:56:55;;;;;;;26.70;7.75;;;;;;;;;;4929314;28;20074;-66
2023/07/21 06:59:22;;;;;;;22.38;7.68;;;;;;;;;;4918194;28;20055;-66
2023/07/21 07:01:48;;;;;;;23.42;7.97;;;;;;;;;;4914831;28;20046;-66
2023/07/21 07:04:14;;;;;;;25.65;8.45;;;;;;;;;;4930903;28;20482;-67
2023/07/21 07:06:41;;;;;;;23.50;8.82;;;;;;;;;;4937364;28;20027;-66
2023/07/21 07:09:08;;;;;;;20.30;7.78;;;;;;;;;;4913197;28;20046;-66
2023/07/21 07:11:34;;;;;;;22.50;7.57;;;;;;;;;;4914929;28;20027;-66
2023/07/21 07:14:00;;;;;;;23.95;7.25;;;;;;;;;;4934923;28;20031;-66
2023/07/21 07:16:27;;;;;;;19.13;7.70;;;;;;;;;;4917529;28;20614;-66
2023/07/21 07:18:53;;;;;;;19.85;7.90;;;;;;;;;;4928994;28;20030;-66
2023/07/21 07:21:21;;;;;;;22.65;7.97;;;;;;;;;;4919346;28;20027;-66
2023/07/21 07:23:47;;;;;;;21.77;8.35;;;;;;;;;;4916943;28;20441;-66
2023/07/21 07:26:13;;;;;;;23.00;8.10;;;;;;;;;;4934653;28;20573;-66
2023/07/21 07:28:39;;;;;;;24.73;8.48;;;;;;;;;;4939589;28;20058;-66
2023/07/21 07:31:06;;;;;;;19.95;8.30;;;;;;;;;;4931982;28;20191;-66
2023/07/21 07:33:32;;;;;;;19.30;7.97;;;;;;;;;;4934747;28;20516;-66
2023/07/21 07:36:02;;;;;;;20.75;8.15;;;;;;;;;;4929270;28;20315;-66
2023/07/21 07:38:29;;;;;;;20.23;7.47;;;;;;;;;;4929026;28;20039;-66
2023/07/21 07:41:00;;;;;;;21.50;8.30;;;;;;;;;;4925811;28;20345;-66
2023/07/21 07:43:26;;;;;;;24.88;8.32;;;;;;;;;;4932804;28;20034;-66
2023/07/21 07:45:53;;;;;;;20.13;7.82;;;;;;;;;;4926979;28;20039;-66
2023/07/21 07:48:22;;;;;;;22.80;7.80;;;;;;;;;;4928534;28;20269;-66
2023/07/21 07:50:48;;;;;;;19.88;7.68;;;;;;;;;;4903295;29;21522;-66
2023/07/21 07:53:14;;;;;;;26.25;8.35;;;;;;;;;;4909780;29;20038;-67
2023/07/21 07:55:44;;;;;;;24.70;7.63;;;;;;;;;;4895221;28;20060;-66
2023/07/21 07:58:10;;;;;;;23.48;7.38;;;;;;;;;;4911118;29;20038;-67
2023/07/21 08:00:38;;;;;;;18.50;7.50;;;;;;;;;;4913045;28;20106;-66
2023/07/21 08:03:07;;;;;;;19.00;7.47;;;;;;;;;;4909136;29;20042;-67
2023/07/21 08:05:34;;;;;;;20.55;6.90;;;;;;;;;;4911422;28;20028;-66
2023/07/21 08:08:01;;;;;;;20.48;7.10;;;;;;;;;;4908112;29;20497;-66
2023/07/21 08:10:28;;;;;;;18.85;6.60;;;;;;;;;;4894391;29;20474;-66
2023/07/21 08:12:55;;;;;;;20.52;5.97;;;;;;;;;;4908513;29;20348;-66
2023/07/21 08:15:21;;;;;;;19.67;6.25;;;;;;;;;;4896625;28;20038;-66
2023/07/21 08:17:47;;;;;;;20.42;6.20;;;;;;;;;;4915353;29;20508;-67
2023/07/21 08:20:14;;;;;;;17.77;5.35;;;;;;;;;;4891340;29;20081;-66
2023/07/21 08:22:40;;;;;;;17.85;5.13;;;;;;;;;;4892514;29;20035;-66
2023/07/21 08:25:06;;;;;;;17.98;5.30;;;;;;;;;;4889991;29;20075;-66
2023/07/21 08:27:35;;;;;;;17.77;5.20;;;;;;;;;;4897131;29;20040;-66
2023/07/21 08:30:01;;;;;;;18.88;5.03;;;;;;;;;;4906081;29;20360;-66
2023/07/21 08:32:27;;;;;;;18.70;4.97;;;;;;;;;;4910563;29;20541;-66
2023/07/21 08:34:57;;;;;;;15.85;5.03;;;;;;;;;;4893245;29;20518;-66
2023/07/21 08:37:23;;;;;;;15.27;4.85;;;;;;;;;;4912742;29;20042;-66
2023/07/21 08:39:49;;;;;;;15.45;5.07;;;;;;;;;;4892493;29;20401;-66
2023/07/21 08:42:16;;;;;;;16.95;4.85;;;;;;;;;;4894368;28;20067;-66
2023/07/21 08:44:42;;;;;;;17.02;4.90;;;;;;;;;;4894309;29;20329;-66
2023/07/21 08:47:08;;;;;;;15.43;5.03;;;;;;;;;;4907704;28;20035;-65
2023/07/21 08:49:36;;;;;;;15.73;4.88;;;;;;;;;;4910960;29;20042;-65
2023/07/21 08:52:03;;;;;;;21.05;4.85;;;;;;;;;;4932611;28;20126;-65
2023/07/21 08:54:29;;;;;;;23.77;4.75;;;;;;;;;;4937174;28;20126;-66
2023/07/21 08:56:55;;;;;;;17.50;4.68;;;;;;;;;;4930757;28;20031;-65
2023/07/21 08:59:22;;;;;;;16.23;4.70;;;;;;;;;;4932964;28;20578;-65
2023/07/21 09:01:48;;;;;;;16.60;4.57;;;;;;;;;;4935163;28;20049;-65
2023/07/21 09:04:21;;;;;;;21.13;4.55;;;;;;;;;;4932295;28;20086;-65
2023/07/21 09:06:51;;;;;;;22.58;4.43;;;;;;;;;;4935967;28;20034;-65
2023/07/21 09:09:17;;;;;;;13.30;4.05;;;;;;;;;;4912568;28;20503;-65
2023/07/21 09:11:43;;;;;;;16.80;5.53;;;;;;;;;;4915062;28;20397;-65
2023/07/21 09:14:09;;;;;;;17.48;5.00;;;;;;;;;;4933019;28;20081;-65
2023/07/21 09:16:38;;;;;;;16.20;4.38;;;;;;;;;;4936434;28;20332;-66
2023/07/21 09:19:08;;;;;;;17.27;4.90;;;;;;;;;;4932336;28;20043;-66
2023/07/21 09:21:35;;;;;;;13.05;4.70;;;;;;;;;;4918328;28;20027;-66
2023/07/21 09:24:02;;;;;;;19.83;6.25;;;;;;;;;;4911170;28;20031;-65
2023/07/21 09:26:28;;;;;;;18.58;5.65;;;;;;;;;;4932677;28;20035;-67
2023/07/21 09:28:54;;;;;;;16.33;4.82;;;;;;;;;;4918763;28;20100;-67
2023/07/21 09:31:34;;;;;;;14.85;4.70;;;;;;;;;;4931560;28;20042;-66
2023/07/21 09:34:07;;;;;;;15.40;4.40;;;;;;;;;;4931690;28;20031;-66
2023/07/21 09:36:33;;;;;;;19.02;4.78;;;;;;;;;;4942974;28;20384;-67
2023/07/21 09:39:02;;;;;;;19.45;4.90;;;;;;;;;;4930820;28;20086;-66
2023/07/21 09:41:31;;;;;;;17.45;5.13;;;;;;;;;;4914626;28;20547;-66
2023/07/21 09:43:59;;;;;;;16.13;5.00;;;;;;;;;;4936438;28;20066;-65
2023/07/21 09:46:25;;;;;;;17.98;5.03;;;;;;;;;;4935994;28;20054;-65
2023/07/21 09:48:51;;;;;;;31.02;6.30;;;;;;;;;;4939923;28;20041;-65
2023/07/21 09:51:19;;;;;;;23.88;5.38;;;;;;;;;;4915328;29;20142;-66
2023/07/21 09:53:45;;;;;;;13.65;4.78;;;;;;;;;;4935780;28;20035;-65
2023/07/21 09:56:12;;;;;;;15.25;5.15;;;;;;;;;;4931838;28;20403;-68
2023/07/21 09:58:45;;;;;;;12.98;4.82;;;;;;;;;;4934673;28;20426;-66
2023/07/21 10:01:12;;;;;;;15.48;4.60;;;;;;;;;;4929899;28;20046;-66
2023/07/21 10:03:39;;;;;;;20.33;5.45;;;;;;;;;;4936921;28;20038;-66
2023/07/21 10:06:09;;;;;;;14.80;4.38;;;;;;;;;;4931632;28;20039;-66
2023/07/21 10:08:36;;;;;;;18.00;5.00;;;;;;;;;;4918421;29;20028;-66
2023/07/21 10:11:04;;;;;;;17.25;4.80;;;;;;;;;;4932798;28;20077;-66
2023/07/21 10:13:31;;;;;;;15.52;5.00;;;;;;;;;;4931917;28;20036;-66
2023/07/21 10:16:01;;;;;;;17.40;5.18;;;;;;;;;;4929841;28;20035;-66
2023/07/21 10:18:27;;;;;;;19.50;5.40;;;;;;;;;;4935464;28;20039;-67
2023/07/21 10:20:56;;;;;;;17.35;5.47;;;;;;;;;;4930204;28;20038;-66
2023/07/21 10:23:25;;;;;;;13.23;5.20;;;;;;;;;;4935461;28;20771;-66
2023/07/21 10:25:52;;;;;;;16.17;5.57;;;;;;;;;;4932374;28;20055;-66
2023/07/21 10:28:25;;;;;;;20.05;5.25;;;;;;;;;;4914309;28;20722;-66
2023/07/21 10:30:52;;;;;;;16.65;5.15;;;;;;;;;;4933204;28;20031;-67
2023/07/21 10:33:20;;;;;;;17.95;6.30;;;;;;;;;;4931844;28;20027;-65
2023/07/21 10:35:48;;;;;;;15.80;5.60;;;;;;;;;;4917502;28;20031;-65
2023/07/21 10:38:14;;;;;;;14.15;5.05;;;;;;;;;;4930578;28;20082;-67
2023/07/21 10:40:43;;;;;;;15.98;5.60;;;;;;;;;;4931890;28;20568;-68
2023/07/21 10:43:10;;;;;;;14.90;4.70;;;;;;;;;;4910292;28;20043;-66
2023/07/21 10:45:36;;;;;;;14.52;4.93;;;;;;;;;;4916733;28;20057;-65
2023/07/21 10:48:12;;;;;;;15.27;5.00;;;;;;;;;;4926219;28;20051;-66
2023/07/21 10:50:58;;;;;;;14.90;4.80;;;;;;;;;;4937467;28;20462;-65
2023/07/21 10:53:24;;;;;;;12.65;4.55;;;;;;;;;;4930335;28;20125;-66
2023/07/21 10:55:54;;;;;;;14.15;5.28;;;;;;;;;;4916149;29;20067;-68
2023/07/21 10:58:20;;;;;;;15.27;4.63;;;;;;;;;;4917937;28;20088;-66
2023/07/21 11:00:48;;;;;;;15.52;5.13;;;;;;;;;;4935901;28;20039;-65
2023/07/21 11:03:14;;;;;;;13.82;4.68;;;;;;;;;;4928369;28;20023;-66
2023/07/21 11:05:40;;;;;;;13.10;4.22;;;;;;;;;;4931844;28;20091;-67
2023/07/21 11:08:10;;;;;;;14.45;5.20;;;;;;;;;;4932539;28;20371;-66
2023/07/21 11:10:36;;;;;;;12.35;4.63;;;;;;;;;;4928109;28;20043;-66
2023/07/21 11:13:02;;;;;;;15.32;4.32;;;;;;;;;;4907521;28;20035;-67
2023/07/21 11:15:29;;;;;;;16.17;4.78;;;;;;;;;;4925470;28;20035;-66
2023/07/21 11:18:02;;;;;;;16.33;4.95;;;;;;;;;;4921926;28;20139;-67
2023/07/21 11:20:28;;;;;;;15.30;4.88;;;;;;;;;;4926168;28;20548;-67
2023/07/21 11:22:55;;;;;;;17.40;5.15;;;;;;;;;;4923562;28;20035;-66
2023/07/21 11:25:21;;;;;;;14.90;4.72;;;;;;;;;;4906323;29;20031;-67
2023/07/21 11:27:48;;;;;;;12.40;4.57;;;;;;;;;;4925465;28;20363;-66
2023/07/21 11:30:18;;;;;;;13.25;5.07;;;;;;;;;;4905715;28;20426;-66
2023/07/21 11:32:44;;;;;;;16.10;4.53;;;;;;;;;;4925008;28;20027;-67
2023/07/21 11:35:11;;;;;;;16.23;4.40;;;;;;;;;;4907640;28;20039;-66
2023/07/21 11:37:42;;;;;;;13.05;4.80;;;;;;;;;;4926827;28;20086;-66
2023/07/21 11:40:13;;;;;;;15.13;4.68;;;;;;;;;;4922157;28;20686;-66
2023/07/21 11:42:44;;;;;;;15.18;4.60;;;;;;;;;;4907493;28;20087;-66
2023/07/21 11:45:29;;;;;;;15.23;4.95;;;;;;;;;;4927331;28;20122;-66
2023/07/21 11:47:55;;;;;;;;;;;;;;;;;;4905113;28;20126;-66
2023/07/21 11:50:21;;;;;;;19.17;4.65;;;;;;;;;;4928235;28;19915;-66
2023/07/21 11:52:47;;;;;;;15.70;4.72;;;;;;;;;;4924965;28;20118;-66
2023/07/21 11:55:14;;;;;;;13.80;4.53;;;;;;;;;;4905419;28;20077;-67
2023/07/21 11:57:40;;;;;;;17.48;5.03;;;;;;;;;;4926815;28;20031;-66
2023/07/21 12:00:11;;;;;;;14.80;4.75;;;;;;;;;;4907997;28;20468;-66
2023/07/21 12:02:38;;;;;;;15.85;4.80;;;;;;;;;;4908580;28;20056;-67
2023/07/21 12:05:05;;;;;;;13.27;4.93;;;;;;;;;;4924313;28;20038;-67
2023/07/21 12:07:31;;;;;;;17.58;4.60;;;;;;;;;;4925669;28;20027;-67
2023/07/21 12:09:59;;;;;;;15.23;5.07;;;;;;;;;;4923702;28;20066;-67
2023/07/21 12:12:25;;;;;;;13.35;4.70;;;;;;;;;;4928359;28;20386;-67
2023/07/21 12:14:51;;;;;;;15.68;4.50;;;;;;;;;;4928617;28;20043;-67
2023/07/21 12:17:18;;;;;;;14.73;4.30;;;;;;;;;;4910284;28;20486;-67
2023/07/21 12:19:44;;;;;;;13.88;4.25;;;;;;;;;;4907960;28;20313;-67
2023/07/21 12:22:11;;;;;;;15.15;4.38;;;;;;;;;;4921419;28;20030;-67
2023/07/21 12:24:37;;;;;;;14.68;4.78;;;;;;;;;;4926309;28;20031;-67
2023/07/21 12:27:04;;;;;;;16.75;5.03;;;;;;;;;;4923520;28;20031;-67
2023/07/21 12:29:30;;;;;;;15.13;5.00;;;;;;;;;;4926532;28;20260;-67
2023/07/21 12:31:56;;;;;;;13.18;4.30;;;;;;;;;;4924568;28;20806;-67
2023/07/21 12:34:23;;;;;;;17.02;5.00;;;;;;;;;;4926224;28;20142;-66
2023/07/21 12:36:49;;;;;;;12.32;4.10;;;;;;;;;;4927471;28;20031;-67
2023/07/21 12:39:17;;;;;;;12.38;4.35;;;;;;;;;;4921461;28;20226;-66
2023/07/21 12:41:43;;;;;;;14.27;4.75;;;;;;;;;;4907420;28;20099;-67
2023/07/21 12:44:09;;;;;;;13.98;4.45;;;;;;;;;;4905157;28;20438;-66
2023/07/21 12:46:35;;;;;;;16.42;4.93;;;;;;;;;;4923629;28;20058;-67
2023/07/21 12:49:02;;;;;;;15.68;5.10;;;;;;;;;;4905455;28;20039;-67
2023/07/21 12:51:28;;;;;;;17.10;4.72;;;;;;;;;;4925528;28;20397;-67
2023/07/21 12:53:54;;;;;;;13.48;4.60;;;;;;;;;;4922574;28;22630;-67
2023/07/21 12:56:20;;;;;;;15.05;4.80;;;;;;;;;;4915920;29;20047;-67
2023/07/21 12:58:46;;;;;;;14.90;4.57;;;;;;;;;;4925344;28;20445;-67
2023/07/21 13:01:12;;;;;;;15.30;4.35;;;;;;;;;;4905621;28;23741;-67
2023/07/21 13:03:39;;;;;;;16.55;4.45;;;;;;;;;;4907131;28;20066;-67
2023/07/21 13:06:05;;;;;;;13.88;4.13;;;;;;;;;;4904960;28;20028;-67
2023/07/21 13:08:31;;;;;;;12.93;4.25;;;;;;;;;;4927043;28;20273;-68
2023/07/21 13:10:57;;;;;;;16.25;4.78;;;;;;;;;;4908523;28;20451;-68
2023/07/21 13:13:23;;;;;;;14.10;4.45;;;;;;;;;;4911082;28;20046;-68
2023/07/21 13:15:50;;;;;;;14.43;4.28;;;;;;;;;;4922949;28;20042;-68
2023/07/21 13:18:16;;;;;;;15.60;4.60;;;;;;;;;;4919090;28;20027;-68
2023/07/21 13:20:42;;;;;;;12.88;4.30;;;;;;;;;;4926261;28;20111;-67
2023/07/21 13:23:08;;;;;;;14.15;4.43;;;;;;;;;;4926588;28;20027;-68
2023/07/21 13:25:35;;;;;;;12.93;4.32;;;;;;;;;;4929584;28;20035;-67
2023/07/21 13:28:01;;;;;;;13.52;4.55;;;;;;;;;;4906583;28;20046;-67
2023/07/21 13:30:27;;;;;;;13.48;4.68;;;;;;;;;;4926833;28;20028;-67
2023/07/21 13:32:53;;;;;;;12.80;4.40;;;;;;;;;;4925403;28;20027;-67
2023/07/21 13:35:19;;;;;;;15.68;5.18;;;;;;;;;;4927611;28;20027;-67
2023/07/21 13:37:45;;;;;;;10.80;4.18;;;;;;;;;;4928181;28;20398;-67
2023/07/21 13:40:12;;;;;;;13.75;4.38;;;;;;;;;;4907531;28;20039;-67
2023/07/21 13:42:38;;;;;;;13.52;4.43;;;;;;;;;;4928560;28;20536;-67
2023/07/21 13:45:05;;;;;;;14.02;4.50;;;;;;;;;;4903265;28;20038;-68
2023/07/21 13:47:32;;;;;;;13.05;4.32;;;;;;;;;;4928581;28;20245;-67
2023/07/21 13:49:58;;;;;;;13.15;4.50;;;;;;;;;;4924959;28;20517;-67
2023/07/21 13:52:24;;;;;;;14.68;4.72;;;;;;;;;;4929750;28;20039;-67
2023/07/21 13:54:51;;;;;;;13.35;4.32;;;;;;;;;;4928825;28;20545;-66
2023/07/21 13:57:17;;;;;;;13.52;4.15;;;;;;;;;;4924708;28;20035;-66
2023/07/21 13:59:44;;;;;;;16.42;4.18;;;;;;;;;;4909398;28;20416;-66
2023/07/21 14:02:10;;;;;;;14.48;4.50;;;;;;;;;;4907338;28;20042;-66
2023/07/21 14:04:38;;;;;;;17.60;4.30;;;;;;;;;;4930616;28;20051;-66
2023/07/21 14:07:04;;;;;;;14.55;4.32;;;;;;;;;;4909350;28;20038;-69
2023/07/21 14:09:31;;;;;;;14.00;4.45;;;;;;;;;;4928758;28;20134;-66
2023/07/21 14:11:57;;;;;;;15.07;4.47;;;;;;;;;;4924503;28;20035;-67
2023/07/21 14:14:23;;;;;;;13.05;4.20;;;;;;;;;;4926576;28;20399;-67
2023/07/21 14:16:50;;;;;;;14.05;4.32;;;;;;;;;;4931470;28;20039;-66
2023/07/21 14:19:16;;;;;;;12.93;4.10;;;;;;;;;;4901853;28;20123;-67
2023/07/21 14:21:42;;;;;;;13.80;4.30;;;;;;;;;;4928916;28;20142;-66
2023/07/21 14:24:08;;;;;;;16.77;4.60;;;;;;;;;;4923682;28;20031;-67
2023/07/21 14:26:35;;;;;;;14.05;4.53;;;;;;;;;;4903473;29;20556;-66
2023/07/21 14:29:01;;;;;;;14.80;5.00;;;;;;;;;;4923956;28;20035;-67